createdAt,value
2023-05-22T00:01:19.536Z,100437.37
2023-05-22T00:04:03.139Z,100438.44
2023-05-22T00:06:35.874Z,100439.99
2023-05-22T00:09:18.001Z,100428.03
2023-05-22T00:12:03.194Z,100428.64
2023-05-22T00:14:35.782Z,100430.71
2023-05-22T00:17:18.722Z,100446.27
2023-05-22T00:19:51.681Z,100453.62
2023-05-22T00:22:35.584Z,100444.49
2023-05-22T00:25:20.481Z,100445.36
2023-05-22T00:28:06.167Z,100453.20
2023-05-22T00:30:38.977Z,100443.22
2023-05-22T00:33:23.972Z,100446.44
2023-05-22T00:35:56.582Z,100440.74
2023-05-22T00:38:38.709Z,100436.05
2023-05-22T00:41:23.076Z,100438.59
2023-05-22T00:43:55.804Z,100429.17
2023-05-22T00:46:40.008Z,100431.45
2023-05-22T00:49:12.606Z,100428.75
2023-05-22T00:51:57.071Z,100438.62
2023-05-22T00:54:45.381Z,100437.45
2023-05-22T00:57:28.387Z,100444.16
2023-05-22T01:00:01.718Z,100441.36
2023-05-22T01:02:44.251Z,100443.22
2023-05-22T01:05:18.468Z,100438.68
2023-05-22T01:08:02.228Z,100440.34
2023-05-22T01:10:44.536Z,100437.00
2023-05-22T01:13:39.637Z,100436.92
2023-05-22T01:16:28.654Z,100432.73
2023-05-22T01:19:31.979Z,100424.32
2023-05-22T01:22:28.329Z,100419.38
2023-05-22T01:25:38.641Z,100433.96
2023-05-22T01:28:41.304Z,100431.48
2023-05-22T01:31:16.669Z,100428.39
2023-05-22T01:34:03.181Z,100432.82
2023-05-22T01:36:38.027Z,100434.70
2023-05-22T01:39:22.582Z,100444.23
2023-05-22T01:41:57.431Z,100438.95
2023-05-22T01:44:43.057Z,100439.48
2023-05-22T01:47:15.587Z,100437.84
2023-05-22T01:49:57.837Z,100436.68
2023-05-22T01:53:01.835Z,100429.71
2023-05-22T01:55:50.558Z,100429.75
2023-05-22T01:58:52.750Z,100434.72
2023-05-22T02:01:37.606Z,100443.58
2023-05-22T02:04:22.711Z,100439.32
2023-05-22T02:07:05.717Z,100441.36
2023-05-22T02:09:48.890Z,100442.35
2023-05-22T02:12:34.902Z,100443.38
2023-05-22T02:15:09.889Z,100436.70
2023-05-22T02:17:53.553Z,100449.00
2023-05-22T02:20:26.228Z,100440.50
2023-05-22T02:23:08.246Z,100443.87
2023-05-22T02:25:50.488Z,100435.36
2023-05-22T02:28:23.357Z,100446.31
2023-05-22T02:31:07.404Z,100447.24
2023-05-22T02:33:40.040Z,100457.27
2023-05-22T02:36:23.416Z,100469.62
2023-05-22T02:38:56.242Z,100466.11
2023-05-22T02:41:39.790Z,100464.23
2023-05-22T02:44:23.751Z,100459.67
2023-05-22T02:46:56.708Z,100457.87
2023-05-22T02:49:41.182Z,100462.05
2023-05-22T02:52:25.586Z,100464.37
2023-05-22T02:54:58.112Z,100462.38
2023-05-22T02:57:40.292Z,100469.75
2023-05-22T03:00:13.883Z,100471.03
2023-05-22T03:02:56.169Z,100476.42
2023-05-22T03:05:40.436Z,100475.76
2023-05-22T03:08:23.627Z,100479.53
2023-05-22T03:11:08.761Z,100474.23
2023-05-22T03:13:41.492Z,100469.20
2023-05-22T03:16:27.071Z,100481.48
2023-05-22T03:19:11.757Z,100475.66
2023-05-22T03:21:55.741Z,100479.98
2023-05-22T03:24:28.694Z,100471.98
2023-05-22T03:27:15.597Z,100480.10
2023-05-22T03:29:48.271Z,100464.05
2023-05-22T03:32:30.708Z,100462.97
2023-05-22T03:35:04.086Z,100460.70
2023-05-22T03:37:46.492Z,100459.31
2023-05-22T03:40:29.277Z,100461.89
2023-05-22T03:43:02.076Z,100457.83
2023-05-22T03:45:44.472Z,100460.19
2023-05-22T03:48:17.135Z,100460.28
2023-05-22T03:51:01.345Z,100466.77
2023-05-22T03:53:33.812Z,100456.03
2023-05-22T03:56:17.588Z,100471.45
2023-05-22T03:58:52.178Z,100470.14
2023-05-22T04:01:37.332Z,100470.22
2023-05-22T04:04:12.434Z,100471.37
2023-05-22T04:06:57.635Z,100473.41
2023-05-22T04:09:32.880Z,100469.23
2023-05-22T04:12:14.912Z,100470.45
2023-05-22T04:14:58.536Z,100467.03
2023-05-22T04:17:34.558Z,100467.03
2023-05-22T04:20:22.400Z,100480.77
2023-05-22T04:22:55.200Z,100475.09
2023-05-22T04:25:27.315Z,100482.37
2023-05-22T04:28:10.991Z,100481.20
2023-05-22T04:30:45.517Z,100477.89
2023-05-22T04:33:29.111Z,100477.50
2023-05-22T04:36:03.034Z,100472.30
2023-05-22T04:38:46.950Z,100459.44
2023-05-22T04:41:21.233Z,100461.37
2023-05-22T04:44:07.091Z,100471.03
2023-05-22T04:46:40.788Z,100468.57
2023-05-22T04:49:24.429Z,100469.75
2023-05-22T04:51:59.209Z,100468.99
2023-05-22T04:54:45.982Z,100481.09
2023-05-22T04:57:18.441Z,100470.92
2023-05-22T04:59:51.311Z,100478.58
2023-05-22T05:02:34.998Z,100471.66
2023-05-22T05:05:18.929Z,100470.61
2023-05-22T05:08:02.982Z,100471.84
2023-05-22T05:10:35.873Z,100473.99
2023-05-22T05:13:08.780Z,100467.52
2023-05-22T05:15:52.716Z,100482.28
2023-05-22T05:18:25.851Z,100485.31
2023-05-22T05:21:07.894Z,100481.94
2023-05-22T05:23:40.469Z,100483.82
2023-05-22T05:26:27.409Z,100491.00
2023-05-22T05:29:12.878Z,100489.22
2023-05-22T05:31:59.760Z,100491.91
2023-05-22T05:34:47.971Z,100494.70
2023-05-22T05:37:47.360Z,100464.28
2023-05-22T05:40:20.509Z,100464.28
2023-05-22T05:43:09.355Z,100478.91
2023-05-22T05:45:55.633Z,100492.54
2023-05-22T05:48:28.730Z,100493.05
2023-05-22T05:51:12.344Z,100503.64
2023-05-22T05:53:58.190Z,100506.77
2023-05-22T05:56:32.003Z,100505.88
2023-05-22T05:59:16.234Z,100516.95
2023-05-22T06:02:14.896Z,100521.20
2023-05-22T06:04:50.518Z,100528.55
2023-05-22T06:07:36.714Z,100517.34
2023-05-22T06:10:08.900Z,100529.88
2023-05-22T06:12:52.891Z,100532.39
2023-05-22T06:15:26.476Z,100519.69
2023-05-22T06:18:12.628Z,100520.77
2023-05-22T06:20:45.062Z,100520.17
2023-05-22T06:23:29.277Z,100517.58
2023-05-22T06:26:31.212Z,100512.77
2023-05-22T06:29:03.943Z,100499.59
2023-05-22T06:31:48.882Z,100503.52
2023-05-22T06:34:22.759Z,100503.16
2023-05-22T06:36:55.160Z,100524.70
2023-05-22T06:39:43.596Z,100511.45
2023-05-22T06:42:30.571Z,100508.75
2023-05-22T06:45:19.306Z,100524.57
2023-05-22T06:48:05.088Z,100517.49
2023-05-22T06:50:39.670Z,100517.49
2023-05-22T06:53:23.518Z,100502.73
2023-05-22T06:56:07.715Z,100477.22
2023-05-22T06:59:00.701Z,100481.83
2023-05-22T07:01:38.316Z,100484.87
2023-05-22T07:04:24.390Z,100501.33
2023-05-22T07:07:11.696Z,100519.00
2023-05-22T07:09:44.737Z,100502.06
2023-05-22T07:12:30.597Z,100494.87
2023-05-22T07:15:03.381Z,100492.60
2023-05-22T07:17:47.411Z,100484.64
2023-05-22T07:20:20.081Z,100487.30
2023-05-22T07:23:11.559Z,100485.65
2023-05-22T07:25:44.665Z,100481.17
2023-05-22T07:28:28.318Z,100486.10
2023-05-22T07:31:16.851Z,100476.95
2023-05-22T07:33:50.465Z,100490.22
2023-05-22T07:36:35.743Z,100508.81
2023-05-22T07:39:10.067Z,100502.44
2023-05-22T07:41:57.233Z,100492.58
2023-05-22T07:44:31.802Z,100485.34
2023-05-22T07:47:17.700Z,100504.81
2023-05-22T07:49:50.450Z,100499.31
2023-05-22T07:52:36.619Z,100494.44
2023-05-22T07:55:19.040Z,100508.13
2023-05-22T07:58:04.392Z,100503.16
2023-05-22T08:00:38.806Z,100488.27
2023-05-22T08:03:24.166Z,100488.28
2023-05-22T08:06:09.031Z,100497.11
2023-05-22T08:08:55.485Z,100497.34
2023-05-22T08:11:28.223Z,100492.05
2023-05-22T08:14:12.772Z,100507.16
2023-05-22T08:16:45.543Z,100504.24
2023-05-22T08:19:28.012Z,100516.66
2023-05-22T08:22:01.234Z,100509.69
2023-05-22T08:24:44.892Z,100508.48
2023-05-22T08:27:18.098Z,100513.58
2023-05-22T08:30:04.695Z,100505.78
2023-05-22T08:32:39.032Z,100504.23
2023-05-22T08:35:22.948Z,100502.49
2023-05-22T08:37:55.761Z,100502.73
2023-05-22T08:40:42.576Z,100504.36
2023-05-22T08:43:25.908Z,100507.21
2023-05-22T08:46:01.269Z,100500.20
2023-05-22T08:48:43.422Z,100490.55
2023-05-22T08:51:32.224Z,100492.05
2023-05-22T08:54:07.858Z,100501.43
2023-05-22T08:56:56.599Z,100492.06
2023-05-22T08:59:27.830Z,100481.98
2023-05-22T09:02:14.120Z,100483.38
2023-05-22T09:04:47.073Z,100483.52
2023-05-22T09:07:31.110Z,100472.11
2023-05-22T09:10:05.544Z,100464.20
2023-05-22T09:12:37.891Z,100459.28
2023-05-22T09:15:21.442Z,100461.22
2023-05-22T09:17:53.970Z,100454.73
2023-05-22T09:20:39.863Z,100467.61
2023-05-22T09:23:18.044Z,100460.05
2023-05-22T09:26:01.743Z,100472.36
2023-05-22T09:28:38.763Z,100470.62
2023-05-22T09:31:11.343Z,100464.64
2023-05-22T09:34:00.046Z,100475.51
2023-05-22T09:36:43.604Z,100471.14
2023-05-22T09:39:16.339Z,100471.16
2023-05-22T09:42:02.793Z,100468.84
2023-05-22T09:44:34.651Z,100465.31
2023-05-22T09:47:19.688Z,100466.50
2023-05-22T09:50:07.537Z,100459.74
2023-05-22T09:52:53.080Z,100457.66
2023-05-22T09:55:26.693Z,100452.82
2023-05-22T09:58:13.044Z,100457.31
2023-05-22T10:00:46.584Z,100454.88
2023-05-22T10:03:34.780Z,100460.74
2023-05-22T10:06:09.436Z,100456.30
2023-05-22T10:08:47.229Z,100448.75
2023-05-22T10:11:33.395Z,100451.44
2023-05-22T10:14:07.930Z,100442.94
2023-05-22T10:16:52.956Z,100444.70
2023-05-22T10:19:41.673Z,100447.39
2023-05-22T10:22:16.990Z,100437.55
2023-05-22T10:25:01.756Z,100439.64
2023-05-22T10:27:34.621Z,100431.13
2023-05-22T10:30:22.311Z,100440.29
2023-05-22T10:33:20.712Z,100446.15
2023-05-22T10:36:05.541Z,100443.09
2023-05-22T10:39:07.547Z,100442.70
2023-05-22T10:41:41.287Z,100449.61
2023-05-22T10:44:26.593Z,100444.08
2023-05-22T10:46:59.554Z,100429.70
2023-05-22T10:49:49.929Z,100437.13
2023-05-22T10:52:24.618Z,100434.81
2023-05-22T10:55:11.471Z,100437.45
2023-05-22T10:57:44.124Z,100429.75
2023-05-22T11:00:30.734Z,100434.03
2023-05-22T11:03:17.770Z,100424.88
2023-05-22T11:05:55.098Z,100432.20
2023-05-22T11:08:39.453Z,100430.56
2023-05-22T11:11:27.912Z,100424.64
2023-05-22T11:14:04.483Z,100415.63
2023-05-22T11:16:49.388Z,100410.75
2023-05-22T11:19:24.313Z,100413.81
2023-05-22T11:22:08.737Z,100416.63
2023-05-22T11:24:42.204Z,100402.48
2023-05-22T11:27:26.353Z,100413.77
2023-05-22T11:30:01.250Z,100403.73
2023-05-22T11:32:48.369Z,100402.67
2023-05-22T11:35:22.952Z,100391.42
2023-05-22T11:38:07.540Z,100405.44
2023-05-22T11:40:40.480Z,100391.08
2023-05-22T11:43:36.580Z,100396.20
2023-05-22T11:46:11.319Z,100393.27
2023-05-22T11:48:56.275Z,100403.84
2023-05-22T11:51:30.397Z,100399.10
2023-05-22T11:54:14.860Z,100397.56
2023-05-22T11:56:48.914Z,100382.87
2023-05-22T11:59:31.625Z,100381.09
2023-05-22T12:02:04.351Z,100363.34
2023-05-22T12:04:38.604Z,100366.11
2023-05-22T12:07:10.897Z,100352.87
2023-05-22T12:09:44.196Z,100368.84
2023-05-22T12:12:28.676Z,100353.02
2023-05-22T12:15:14.015Z,100360.48
2023-05-22T12:17:59.202Z,100345.48
2023-05-22T12:20:45.866Z,100354.85
2023-05-22T12:23:26.446Z,100349.39
2023-05-22T12:26:13.793Z,100341.68
2023-05-22T12:28:46.738Z,100335.22
2023-05-22T12:31:31.928Z,100339.73
2023-05-22T12:34:07.838Z,100323.75
2023-05-22T12:36:49.964Z,100328.23
2023-05-22T12:39:22.629Z,100311.51
2023-05-22T12:42:06.601Z,100320.56
2023-05-22T12:44:40.841Z,100307.24
2023-05-22T12:47:25.675Z,100304.59
2023-05-22T12:50:10.402Z,100303.40
2023-05-22T12:52:54.171Z,100307.02
2023-05-22T12:55:36.752Z,100303.19
2023-05-22T12:58:09.899Z,100278.73
2023-05-22T13:00:53.618Z,100285.86
2023-05-22T13:03:37.773Z,100286.52
2023-05-22T13:06:10.588Z,100271.50
2023-05-22T13:08:54.320Z,100278.69
2023-05-22T13:11:27.039Z,100260.14
2023-05-22T13:14:10.613Z,100274.05
2023-05-22T13:16:43.132Z,100266.93
2023-05-22T13:19:27.703Z,100270.52
2023-05-22T13:22:00.771Z,100260.08
2023-05-22T13:24:42.961Z,100261.69
2023-05-22T13:27:18.159Z,100251.42
2023-05-22T13:30:00.392Z,100253.97
2023-05-22T13:32:38.040Z,100236.05
2023-05-22T13:35:21.863Z,100246.98
2023-05-22T13:37:54.682Z,100224.34
2023-05-22T13:40:38.209Z,100234.59
2023-05-22T13:43:11.240Z,100220.30
2023-05-22T13:45:53.348Z,100225.65
2023-05-22T13:48:25.817Z,100219.22
2023-05-22T13:50:58.316Z,100207.47
2023-05-22T13:53:42.013Z,100210.74
2023-05-22T13:56:14.654Z,100198.05
2023-05-22T13:58:58.892Z,100203.27
2023-05-22T14:01:31.676Z,100202.19
2023-05-22T14:04:16.950Z,100211.70
2023-05-22T14:06:49.937Z,100212.22
2023-05-22T14:09:33.755Z,100221.05
2023-05-22T14:12:06.530Z,100222.70
2023-05-22T14:14:50.199Z,100234.52
2023-05-22T14:17:22.794Z,100228.90
2023-05-22T14:20:05.509Z,100239.80
2023-05-22T14:22:52.814Z,100227.92
2023-05-22T14:25:23.739Z,100236.07
2023-05-22T14:28:07.834Z,100230.68
2023-05-22T14:30:41.113Z,100230.82
2023-05-22T14:33:23.611Z,100247.55
2023-05-22T14:35:56.207Z,100236.80
2023-05-22T14:38:38.751Z,100228.42
2023-05-22T14:41:22.212Z,100221.28
2023-05-22T14:44:04.306Z,100222.12
2023-05-22T14:46:37.182Z,100210.76
2023-05-22T14:49:21.538Z,100217.05
2023-05-22T14:51:54.913Z,100211.97
2023-05-22T14:54:37.296Z,100209.48
2023-05-22T14:57:21.081Z,100213.09
2023-05-22T14:59:54.281Z,100201.52
2023-05-22T15:02:39.363Z,100206.55
2023-05-22T15:05:12.557Z,100205.09
2023-05-22T15:07:58.708Z,100201.75
2023-05-22T15:10:42.938Z,100200.59
2023-05-22T15:13:15.767Z,100204.47
2023-05-22T15:15:58.614Z,100213.45
2023-05-22T15:18:31.336Z,100204.55
2023-05-22T15:21:15.598Z,100217.02
2023-05-22T15:24:00.819Z,100216.84
2023-05-22T15:26:33.354Z,100217.47
2023-05-22T15:29:15.606Z,100222.01
2023-05-22T15:31:48.264Z,100228.05
2023-05-22T15:34:31.112Z,100242.19
2023-05-22T15:37:03.828Z,100225.50
2023-05-22T15:39:48.754Z,100227.48
2023-05-22T15:42:33.906Z,100231.56
2023-05-22T15:45:07.072Z,100227.25
2023-05-22T15:47:49.363Z,100232.68
2023-05-22T15:50:36.421Z,100233.03
2023-05-22T15:53:09.189Z,100222.08
2023-05-22T15:55:51.856Z,100233.66
2023-05-22T15:58:24.431Z,100240.02
2023-05-22T16:01:08.393Z,100245.77
2023-05-22T16:03:41.325Z,100249.97
2023-05-22T16:06:25.605Z,100256.13
2023-05-22T16:08:58.160Z,100262.25
2023-05-22T16:11:42.264Z,100266.16
2023-05-22T16:14:15.164Z,100263.16
2023-05-22T16:16:58.309Z,100262.91
2023-05-22T16:19:32.647Z,100252.00
2023-05-22T16:22:15.928Z,100261.73
2023-05-22T16:24:58.805Z,100255.42
2023-05-22T16:27:44.422Z,100263.05
2023-05-22T16:30:18.479Z,100263.92
2023-05-22T16:33:03.990Z,100270.87
2023-05-22T16:35:47.962Z,100269.12
2023-05-22T16:38:20.851Z,100269.03
2023-05-22T16:41:03.111Z,100272.10
2023-05-22T16:43:48.516Z,100275.42
2023-05-22T16:46:21.353Z,100275.42
2023-05-22T16:49:05.186Z,100273.05
2023-05-22T16:51:49.324Z,100272.97
2023-05-22T16:54:21.846Z,100269.20
2023-05-22T16:57:07.665Z,100271.48
2023-05-22T16:59:41.374Z,100266.72
2023-05-22T17:02:25.089Z,100278.64
2023-05-22T17:04:57.809Z,100272.19
2023-05-22T17:07:40.002Z,100275.30
2023-05-22T17:10:22.213Z,100278.47
2023-05-22T17:12:55.074Z,100269.27
2023-05-22T17:15:38.925Z,100272.39
2023-05-22T17:18:24.330Z,100270.95
2023-05-22T17:20:57.641Z,100269.78
2023-05-22T17:23:41.421Z,100268.80
2023-05-22T17:26:25.254Z,100274.75
2023-05-22T17:28:57.713Z,100261.07
2023-05-22T17:32:01.278Z,100267.85
2023-05-22T17:34:43.281Z,100267.84
2023-05-22T17:37:16.125Z,100264.59
2023-05-22T17:39:58.279Z,100274.98
2023-05-22T17:42:42.334Z,100263.98
2023-05-22T17:45:26.327Z,100267.13
2023-05-22T17:47:58.923Z,100269.11
2023-05-22T17:50:44.269Z,100269.73
2023-05-22T17:53:23.280Z,100265.33
2023-05-22T17:56:07.391Z,100268.62
2023-05-22T17:58:40.048Z,100265.81
2023-05-22T18:01:23.874Z,100266.45
2023-05-22T18:03:58.670Z,100267.45
2023-05-22T18:06:40.923Z,100273.41
2023-05-22T18:09:25.181Z,100268.69
2023-05-22T18:11:58.981Z,100264.51
2023-05-22T18:14:43.678Z,100266.36
2023-05-22T18:17:16.036Z,100262.02
2023-05-22T18:20:00.853Z,100268.11
2023-05-22T18:22:33.581Z,100261.98
2023-05-22T18:25:17.187Z,100261.58
2023-05-22T18:28:00.799Z,100272.42
2023-05-22T18:30:49.260Z,100267.44
2023-05-22T18:33:33.655Z,100272.03
2023-05-22T18:36:06.480Z,100260.64
2023-05-22T18:38:50.071Z,100269.31
2023-05-22T18:41:22.624Z,100269.28
2023-05-22T18:44:05.282Z,100273.38
2023-05-22T18:46:38.131Z,100274.80
2023-05-22T18:49:22.265Z,100284.20
2023-05-22T18:52:04.539Z,100288.27
2023-05-22T18:54:37.293Z,100280.27
2023-05-22T18:57:21.959Z,100282.77
2023-05-22T19:00:04.517Z,100281.48
2023-05-22T19:02:47.408Z,100275.05
2023-05-22T19:05:30.241Z,100276.34
2023-05-22T19:08:13.967Z,100281.96
2023-05-22T19:11:00.172Z,100277.83
2023-05-22T19:13:42.158Z,100284.52
2023-05-22T19:16:15.497Z,100270.92
2023-05-22T19:18:59.071Z,100276.72
2023-05-22T19:21:32.675Z,100271.24
2023-05-22T19:24:14.811Z,100271.11
2023-05-22T19:26:47.526Z,100261.48
2023-05-22T19:29:32.144Z,100265.84
2023-05-22T19:32:04.610Z,100259.55
2023-05-22T19:34:46.651Z,100263.70
2023-05-22T19:37:28.630Z,100261.25
2023-05-22T19:40:01.458Z,100253.28
2023-05-22T19:42:44.968Z,100258.32
2023-05-22T19:45:18.458Z,100251.06
2023-05-22T19:48:02.502Z,100253.59
2023-05-22T19:50:47.085Z,100252.11
2023-05-22T19:53:29.288Z,100254.34
2023-05-22T19:56:05.077Z,100247.24
2023-05-22T19:58:48.828Z,100244.48
2023-05-22T20:01:21.309Z,100243.40
2023-05-22T20:04:05.698Z,100247.57
2023-05-22T20:06:38.318Z,100235.78
2023-05-22T20:09:27.473Z,100236.31
2023-05-22T20:11:59.905Z,100230.69
2023-05-22T20:14:43.618Z,100238.23
2023-05-22T20:17:16.216Z,100236.81
2023-05-22T20:20:00.205Z,100237.17
2023-05-22T20:22:34.372Z,100233.87
2023-05-22T20:25:19.717Z,100238.56
2023-05-22T20:27:52.571Z,100223.80
2023-05-22T20:30:36.483Z,100232.00
2023-05-22T20:33:09.297Z,100230.59
2023-05-22T20:35:53.302Z,100228.91
2023-05-22T20:38:26.185Z,100228.50
2023-05-22T20:41:29.468Z,100230.28
2023-05-22T20:44:11.504Z,100219.79
2023-05-22T20:46:44.030Z,100223.72
2023-05-22T20:49:28.106Z,100219.69
2023-05-22T20:52:00.651Z,100207.73
2023-05-22T20:54:45.742Z,100221.17
2023-05-22T20:57:29.309Z,100216.48
2023-05-22T21:00:11.922Z,100220.00
2023-05-22T21:02:44.713Z,100213.34
2023-05-22T21:05:26.884Z,100220.73
2023-05-22T21:07:59.709Z,100220.23
2023-05-22T21:10:43.196Z,100214.08
2023-05-22T21:13:15.675Z,100219.69
2023-05-22T21:15:57.777Z,100218.42
2023-05-22T21:18:39.757Z,100206.75
2023-05-22T21:21:12.317Z,100208.12
2023-05-22T21:23:55.889Z,100208.47
2023-05-22T21:26:40.968Z,100208.23
2023-05-22T21:29:13.374Z,100205.27
2023-05-22T21:31:55.633Z,100213.32
2023-05-22T21:34:28.197Z,100212.91
2023-05-22T21:37:12.426Z,100220.20
2023-05-22T21:39:56.353Z,100210.36
2023-05-22T21:42:44.517Z,100213.42
2023-05-22T21:45:14.732Z,100216.28
2023-05-22T21:47:47.537Z,100206.44
2023-05-22T21:50:31.819Z,100204.20
2023-05-22T21:53:04.379Z,100197.94
2023-05-22T21:55:48.994Z,100195.72
2023-05-22T21:58:21.482Z,100197.42
2023-05-22T22:01:05.139Z,100201.58
2023-05-22T22:03:39.082Z,100173.69
2023-05-22T22:06:21.216Z,100203.13
2023-05-22T22:08:53.754Z,100194.58
2023-05-22T22:11:37.629Z,100197.97
2023-05-22T22:14:10.094Z,100190.33
2023-05-22T22:16:57.029Z,100196.37
2023-05-22T22:19:42.008Z,100189.92
2023-05-22T22:22:14.732Z,100176.97
2023-05-22T22:24:57.115Z,100168.99
2023-05-22T22:27:30.262Z,100168.99
2023-05-22T22:30:12.855Z,100180.14
2023-05-22T22:32:48.169Z,100171.20
2023-05-22T22:35:31.505Z,100169.91
2023-05-22T22:38:04.302Z,100169.91
2023-05-22T22:40:46.602Z,100172.41
2023-05-22T22:43:19.159Z,100175.89
2023-05-22T22:46:03.707Z,100186.27
2023-05-22T22:48:36.785Z,100156.91
2023-05-22T22:51:21.626Z,100176.16
2023-05-22T22:54:06.120Z,100175.70
2023-05-22T22:56:39.130Z,100177.21
2023-05-22T22:59:23.267Z,100172.61
2023-05-22T23:01:56.148Z,100171.67
2023-05-22T23:04:41.538Z,100169.72
2023-05-22T23:07:26.293Z,100172.69
2023-05-22T23:09:59.219Z,100161.89
2023-05-22T23:12:35.202Z,100162.94
2023-05-22T23:15:19.217Z,100158.25
2023-05-22T23:17:52.434Z,100160.70
2023-05-22T23:20:36.253Z,100160.36
2023-05-22T23:23:20.469Z,100156.66
2023-05-22T23:26:04.307Z,100157.02
2023-05-22T23:28:37.473Z,100157.02
2023-05-22T23:31:19.876Z,100153.06
2023-05-22T23:33:56.343Z,100146.53
2023-05-22T23:36:39.934Z,100149.59
2023-05-22T23:39:12.556Z,100147.39
2023-05-22T23:41:55.067Z,100154.02
2023-05-22T23:44:27.880Z,100139.66
2023-05-22T23:47:11.681Z,100113.46
2023-05-22T23:49:44.373Z,100113.46
2023-05-22T23:52:27.053Z,100146.78
2023-05-22T23:54:59.887Z,100133.15
2023-05-22T23:57:43.511Z,100146.98
